sensor_id;sensor_type;location;lat;lon;timestamp;P1;durP1;ratioP1;P2;durP2;ratioP2
79454;SDS011;68900;52.134;5.420;2024-01-25T00:01:56;13.95;;;1.98;;
79454;SDS011;68900;52.134;5.420;2024-01-25T00:04:23;17.40;;;2.53;;
79454;SDS011;68900;52.134;5.420;2024-01-25T00:06:49;16.75;;;2.13;;
79454;SDS011;68900;52.134;5.420;2024-01-25T00:09:16;18.83;;;2.80;;
79454;SDS011;68900;52.134;5.420;2024-01-25T00:11:43;17.33;;;2.20;;
79454;SDS011;68900;52.134;5.420;2024-01-25T00:14:11;21.77;;;3.10;;
79454;SDS011;68900;52.134;5.420;2024-01-25T00:16:41;18.00;;;2.20;;
79454;SDS011;68900;52.134;5.420;2024-01-25T00:19:08;19.02;;;2.40;;
79454;SDS011;68900;52.134;5.420;2024-01-25T00:21:35;24.88;;;2.60;;
79454;SDS011;68900;52.134;5.420;2024-01-25T00:24:01;16.33;;;2.35;;
79454;SDS011;68900;52.134;5.420;2024-01-25T00:26:28;23.33;;;3.20;;
79454;SDS011;68900;52.134;5.420;2024-01-25T00:28:54;26.45;;;3.03;;
79454;SDS011;68900;52.134;5.420;2024-01-25T00:31:23;17.75;;;2.90;;
79454;SDS011;68900;52.134;5.420;2024-01-25T00:33:53;12.45;;;1.98;;
79454;SDS011;68900;52.134;5.420;2024-01-25T00:36:20;19.17;;;2.17;;
79454;SDS011;68900;52.134;5.420;2024-01-25T00:38:46;18.65;;;2.63;;
79454;SDS011;68900;52.134;5.420;2024-01-25T00:41:14;12.48;;;2.22;;
79454;SDS011;68900;52.134;5.420;2024-01-25T00:43:43;19.02;;;3.03;;
79454;SDS011;68900;52.134;5.420;2024-01-25T00:46:13;15.82;;;2.00;;
79454;SDS011;68900;52.134;5.420;2024-01-25T00:48:40;15.02;;;2.20;;
79454;SDS011;68900;52.134;5.420;2024-01-25T00:51:11;20.00;;;2.63;;
79454;SDS011;68900;52.134;5.420;2024-01-25T00:53:42;16.40;;;2.30;;
79454;SDS011;68900;52.134;5.420;2024-01-25T00:56:09;19.15;;;2.30;;
79454;SDS011;68900;52.134;5.420;2024-01-25T00:58:36;22.58;;;2.55;;
79454;SDS011;68900;52.134;5.420;2024-01-25T01:01:03;19.10;;;2.78;;
79454;SDS011;68900;52.134;5.420;2024-01-25T01:03:30;17.23;;;3.17;;
79454;SDS011;68900;52.134;5.420;2024-01-25T01:05:57;16.17;;;2.35;;
79454;SDS011;68900;52.134;5.420;2024-01-25T01:08:24;15.85;;;2.50;;
79454;SDS011;68900;52.134;5.420;2024-01-25T01:10:52;14.98;;;2.28;;
79454;SDS011;68900;52.134;5.420;2024-01-25T01:13:18;17.90;;;2.90;;
79454;SDS011;68900;52.134;5.420;2024-01-25T01:15:45;19.25;;;2.42;;
79454;SDS011;68900;52.134;5.420;2024-01-25T01:18:15;14.63;;;2.63;;
79454;SDS011;68900;52.134;5.420;2024-01-25T01:20:42;18.08;;;2.85;;
79454;SDS011;68900;52.134;5.420;2024-01-25T01:23:09;21.58;;;2.35;;
79454;SDS011;68900;52.134;5.420;2024-01-25T01:25:35;12.88;;;2.05;;
79454;SDS011;68900;52.134;5.420;2024-01-25T01:28:01;19.20;;;2.63;;
79454;SDS011;68900;52.134;5.420;2024-01-25T01:30:28;13.25;;;2.50;;
79454;SDS011;68900;52.134;5.420;2024-01-25T01:32:58;11.65;;;2.22;;
79454;SDS011;68900;52.134;5.420;2024-01-25T01:35:24;14.30;;;2.38;;
79454;SDS011;68900;52.134;5.420;2024-01-25T01:37:51;21.25;;;3.08;;
79454;SDS011;68900;52.134;5.420;2024-01-25T01:40:18;22.80;;;2.70;;
79454;SDS011;68900;52.134;5.420;2024-01-25T01:42:44;16.02;;;2.90;;
79454;SDS011;68900;52.134;5.420;2024-01-25T01:45:13;14.90;;;1.80;;
79454;SDS011;68900;52.134;5.420;2024-01-25T01:47:40;15.48;;;2.35;;
79454;SDS011;68900;52.134;5.420;2024-01-25T01:50:08;17.33;;;2.58;;
79454;SDS011;68900;52.134;5.420;2024-01-25T01:52:36;18.63;;;3.53;;
79454;SDS011;68900;52.134;5.420;2024-01-25T01:55:12;16.77;;;2.78;;
79454;SDS011;68900;52.134;5.420;2024-01-25T01:57:38;15.00;;;1.95;;
79454;SDS011;68900;52.134;5.420;2024-01-25T02:00:06;18.13;;;2.80;;
79454;SDS011;68900;52.134;5.420;2024-01-25T02:02:35;21.45;;;3.05;;
79454;SDS011;68900;52.134;5.420;2024-01-25T02:05:01;13.35;;;1.88;;
79454;SDS011;68900;52.134;5.420;2024-01-25T02:07:28;20.38;;;2.65;;
79454;SDS011;68900;52.134;5.420;2024-01-25T02:09:56;15.05;;;2.30;;
79454;SDS011;68900;52.134;5.420;2024-01-25T02:12:25;17.13;;;2.00;;
79454;SDS011;68900;52.134;5.420;2024-01-25T02:14:52;12.30;;;2.00;;
79454;SDS011;68900;52.134;5.420;2024-01-25T02:17:18;20.65;;;2.35;;
79454;SDS011;68900;52.134;5.420;2024-01-25T02:19:45;17.15;;;2.15;;
79454;SDS011;68900;52.134;5.420;2024-01-25T02:22:14;15.80;;;2.53;;
79454;SDS011;68900;52.134;5.420;2024-01-25T02:24:44;19.63;;;2.45;;
79454;SDS011;68900;52.134;5.420;2024-01-25T02:27:14;16.13;;;2.35;;
79454;SDS011;68900;52.134;5.420;2024-01-25T02:29:40;20.23;;;2.70;;
79454;SDS011;68900;52.134;5.420;2024-01-25T02:32:09;22.38;;;2.88;;
79454;SDS011;68900;52.134;5.420;2024-01-25T02:34:35;17.77;;;2.67;;
79454;SDS011;68900;52.134;5.420;2024-01-25T02:37:05;20.55;;;2.42;;
79454;SDS011;68900;52.134;5.420;2024-01-25T02:39:38;15.52;;;2.92;;
79454;SDS011;68900;52.134;5.420;2024-01-25T02:42:13;19.52;;;2.53;;
79454;SDS011;68900;52.134;5.420;2024-01-25T02:44:43;17.85;;;2.75;;
79454;SDS011;68900;52.134;5.420;2024-01-25T02:47:10;13.30;;;2.47;;
79454;SDS011;68900;52.134;5.420;2024-01-25T02:49:36;18.05;;;2.33;;
79454;SDS011;68900;52.134;5.420;2024-01-25T02:52:03;13.05;;;1.92;;
79454;SDS011;68900;52.134;5.420;2024-01-25T02:54:30;17.02;;;2.30;;
79454;SDS011;68900;52.134;5.420;2024-01-25T02:56:57;14.85;;;2.50;;
79454;SDS011;68900;52.134;5.420;2024-01-25T02:59:23;13.48;;;1.95;;
79454;SDS011;68900;52.134;5.420;2024-01-25T03:01:49;16.67;;;2.47;;
79454;SDS011;68900;52.134;5.420;2024-01-25T03:04:16;16.20;;;3.03;;
79454;SDS011;68900;52.134;5.420;2024-01-25T03:09:12;14.80;;;2.25;;
79454;SDS011;68900;52.134;5.420;2024-01-25T03:11:42;12.88;;;2.20;;
79454;SDS011;68900;52.134;5.420;2024-01-25T03:14:08;17.92;;;2.15;;
79454;SDS011;68900;52.134;5.420;2024-01-25T03:16:35;16.65;;;2.08;;
79454;SDS011;68900;52.134;5.420;2024-01-25T03:19:01;16.58;;;2.60;;
79454;SDS011;68900;52.134;5.420;2024-01-25T03:21:31;14.38;;;2.33;;
79454;SDS011;68900;52.134;5.420;2024-01-25T03:23:57;19.27;;;2.80;;
79454;SDS011;68900;52.134;5.420;2024-01-25T03:26:26;17.85;;;2.30;;
79454;SDS011;68900;52.134;5.420;2024-01-25T03:28:53;16.65;;;2.70;;
79454;SDS011;68900;52.134;5.420;2024-01-25T03:31:19;18.88;;;2.50;;
79454;SDS011;68900;52.134;5.420;2024-01-25T03:33:46;17.10;;;2.90;;
79454;SDS011;68900;52.134;5.420;2024-01-25T03:36:16;13.13;;;1.98;;
79454;SDS011;68900;52.134;5.420;2024-01-25T03:38:42;13.23;;;2.33;;
79454;SDS011;68900;52.134;5.420;2024-01-25T03:41:09;13.68;;;1.98;;
79454;SDS011;68900;52.134;5.420;2024-01-25T03:43:36;19.23;;;2.05;;
79454;SDS011;68900;52.134;5.420;2024-01-25T03:46:09;13.25;;;2.65;;
79454;SDS011;68900;52.134;5.420;2024-01-25T03:48:36;16.65;;;1.88;;
79454;SDS011;68900;52.134;5.420;2024-01-25T03:51:02;19.60;;;2.70;;
79454;SDS011;68900;52.134;5.420;2024-01-25T03:53:29;17.98;;;2.30;;
79454;SDS011;68900;52.134;5.420;2024-01-25T03:55:56;13.77;;;2.00;;
79454;SDS011;68900;52.134;5.420;2024-01-25T03:58:23;15.10;;;2.28;;
79454;SDS011;68900;52.134;5.420;2024-01-25T04:00:49;18.02;;;2.38;;
79454;SDS011;68900;52.134;5.420;2024-01-25T04:03:16;11.55;;;2.45;;
79454;SDS011;68900;52.134;5.420;2024-01-25T04:05:42;11.60;;;1.92;;
79454;SDS011;68900;52.134;5.420;2024-01-25T04:08:09;18.60;;;2.38;;
79454;SDS011;68900;52.134;5.420;2024-01-25T04:10:36;12.10;;;2.05;;
79454;SDS011;68900;52.134;5.420;2024-01-25T04:13:03;14.73;;;2.50;;
79454;SDS011;68900;52.134;5.420;2024-01-25T04:15:33;14.80;;;2.08;;
79454;SDS011;68900;52.134;5.420;2024-01-25T04:18:03;12.13;;;2.17;;
79454;SDS011;68900;52.134;5.420;2024-01-25T04:20:30;13.80;;;2.38;;
79454;SDS011;68900;52.134;5.420;2024-01-25T04:22:58;14.50;;;1.92;;
79454;SDS011;68900;52.134;5.420;2024-01-25T04:25:24;20.88;;;2.70;;
79454;SDS011;68900;52.134;5.420;2024-01-25T04:27:51;13.75;;;2.70;;
79454;SDS011;68900;52.134;5.420;2024-01-25T04:30:17;19.13;;;2.22;;
79454;SDS011;68900;52.134;5.420;2024-01-25T04:32:44;17.00;;;2.80;;
79454;SDS011;68900;52.134;5.420;2024-01-25T04:35:11;23.05;;;2.78;;
79454;SDS011;68900;52.134;5.420;2024-01-25T04:37:38;16.83;;;1.90;;
79454;SDS011;68900;52.134;5.420;2024-01-25T04:40:07;10.25;;;2.17;;
79454;SDS011;68900;52.134;5.420;2024-01-25T04:42:34;18.13;;;2.33;;
79454;SDS011;68900;52.134;5.420;2024-01-25T04:45:00;23.27;;;2.45;;
79454;SDS011;68900;52.134;5.420;2024-01-25T04:47:27;16.00;;;2.30;;
79454;SDS011;68900;52.134;5.420;2024-01-25T04:49:54;17.20;;;2.25;;
79454;SDS011;68900;52.134;5.420;2024-01-25T04:52:23;8.30;;;1.90;;
79454;SDS011;68900;52.134;5.420;2024-01-25T04:55:04;11.43;;;1.90;;
79454;SDS011;68900;52.134;5.420;2024-01-25T04:57:34;17.88;;;2.35;;
79454;SDS011;68900;52.134;5.420;2024-01-25T05:00:00;17.13;;;1.73;;
79454;SDS011;68900;52.134;5.420;2024-01-25T05:02:27;16.27;;;2.42;;
79454;SDS011;68900;52.134;5.420;2024-01-25T05:04:53;12.75;;;2.03;;
79454;SDS011;68900;52.134;5.420;2024-01-25T05:07:22;13.40;;;2.42;;
79454;SDS011;68900;52.134;5.420;2024-01-25T05:09:56;11.95;;;2.35;;
79454;SDS011;68900;52.134;5.420;2024-01-25T05:12:23;14.00;;;1.80;;
79454;SDS011;68900;52.134;5.420;2024-01-25T05:14:49;15.18;;;2.65;;
79454;SDS011;68900;52.134;5.420;2024-01-25T05:17:16;12.75;;;1.83;;
79454;SDS011;68900;52.134;5.420;2024-01-25T05:19:42;13.90;;;1.85;;
79454;SDS011;68900;52.134;5.420;2024-01-25T05:22:09;18.65;;;2.53;;
79454;SDS011;68900;52.134;5.420;2024-01-25T05:24:36;17.92;;;2.28;;
79454;SDS011;68900;52.134;5.420;2024-01-25T05:27:02;11.32;;;1.95;;
79454;SDS011;68900;52.134;5.420;2024-01-25T05:29:29;15.73;;;1.73;;
79454;SDS011;68900;52.134;5.420;2024-01-25T05:31:55;15.68;;;2.22;;
79454;SDS011;68900;52.134;5.420;2024-01-25T05:34:22;16.85;;;2.38;;
79454;SDS011;68900;52.134;5.420;2024-01-25T05:36:49;14.23;;;1.95;;
79454;SDS011;68900;52.134;5.420;2024-01-25T05:39:16;13.13;;;1.90;;
79454;SDS011;68900;52.134;5.420;2024-01-25T05:41:43;17.65;;;2.42;;
79454;SDS011;68900;52.134;5.420;2024-01-25T05:44:12;17.33;;;2.20;;
79454;SDS011;68900;52.134;5.420;2024-01-25T05:46:42;11.85;;;2.55;;
79454;SDS011;68900;52.134;5.420;2024-01-25T05:49:08;14.15;;;2.70;;
79454;SDS011;68900;52.134;5.420;2024-01-25T05:51:35;15.10;;;2.88;;
79454;SDS011;68900;52.134;5.420;2024-01-25T05:54:02;12.40;;;2.03;;
79454;SDS011;68900;52.134;5.420;2024-01-25T05:56:29;9.85;;;1.70;;
79454;SDS011;68900;52.134;5.420;2024-01-25T05:58:55;15.10;;;2.08;;
79454;SDS011;68900;52.134;5.420;2024-01-25T06:01:22;16.83;;;2.60;;
79454;SDS011;68900;52.134;5.420;2024-01-25T06:03:49;11.95;;;1.70;;
79454;SDS011;68900;52.134;5.420;2024-01-25T06:06:16;18.45;;;2.05;;
79454;SDS011;68900;52.134;5.420;2024-01-25T06:08:42;21.20;;;2.70;;
79454;SDS011;68900;52.134;5.420;2024-01-25T06:11:17;14.18;;;2.40;;
79454;SDS011;68900;52.134;5.420;2024-01-25T06:13:43;16.50;;;3.03;;
79454;SDS011;68900;52.134;5.420;2024-01-25T06:16:10;15.68;;;2.53;;
79454;SDS011;68900;52.134;5.420;2024-01-25T06:18:37;18.58;;;2.80;;
79454;SDS011;68900;52.134;5.420;2024-01-25T06:21:04;16.27;;;2.13;;
79454;SDS011;68900;52.134;5.420;2024-01-25T06:23:30;13.73;;;2.38;;
79454;SDS011;68900;52.134;5.420;2024-01-25T06:25:57;11.65;;;2.15;;
79454;SDS011;68900;52.134;5.420;2024-01-25T06:28:24;11.05;;;1.95;;
79454;SDS011;68900;52.134;5.420;2024-01-25T06:30:51;16.50;;;2.65;;
79454;SDS011;68900;52.134;5.420;2024-01-25T06:33:18;18.05;;;3.05;;
79454;SDS011;68900;52.134;5.420;2024-01-25T06:35:44;15.18;;;2.97;;
79454;SDS011;68900;52.134;5.420;2024-01-25T06:38:11;17.33;;;2.60;;
79454;SDS011;68900;52.134;5.420;2024-01-25T06:40:38;14.20;;;2.55;;
79454;SDS011;68900;52.134;5.420;2024-01-25T06:43:04;14.60;;;2.25;;
79454;SDS011;68900;52.134;5.420;2024-01-25T06:45:31;13.35;;;2.08;;
79454;SDS011;68900;52.134;5.420;2024-01-25T06:47:58;20.83;;;2.83;;
79454;SDS011;68900;52.134;5.420;2024-01-25T06:50:24;15.23;;;2.30;;
79454;SDS011;68900;52.134;5.420;2024-01-25T06:52:53;17.42;;;2.97;;
79454;SDS011;68900;52.134;5.420;2024-01-25T06:55:21;13.15;;;1.90;;
79454;SDS011;68900;52.134;5.420;2024-01-25T06:57:48;23.52;;;3.10;;
79454;SDS011;68900;52.134;5.420;2024-01-25T07:00:16;21.77;;;3.33;;
79454;SDS011;68900;52.134;5.420;2024-01-25T07:02:43;22.23;;;3.17;;
79454;SDS011;68900;52.134;5.420;2024-01-25T07:05:11;17.10;;;3.35;;
79454;SDS011;68900;52.134;5.420;2024-01-25T07:07:38;17.25;;;3.08;;
79454;SDS011;68900;52.134;5.420;2024-01-25T07:10:06;15.70;;;3.33;;
79454;SDS011;68900;52.134;5.420;2024-01-25T07:12:33;22.88;;;3.40;;
79454;SDS011;68900;52.134;5.420;2024-01-25T07:15:00;12.38;;;2.85;;
79454;SDS011;68900;52.134;5.420;2024-01-25T07:19:56;14.40;;;3.30;;
79454;SDS011;68900;52.134;5.420;2024-01-25T07:22:23;18.75;;;3.28;;
79454;SDS011;68900;52.134;5.420;2024-01-25T07:24:50;20.95;;;3.88;;
79454;SDS011;68900;52.134;5.420;2024-01-25T07:27:17;20.33;;;2.97;;
79454;SDS011;68900;52.134;5.420;2024-01-25T07:29:44;20.17;;;3.28;;
79454;SDS011;68900;52.134;5.420;2024-01-25T07:32:12;17.45;;;4.00;;
79454;SDS011;68900;52.134;5.420;2024-01-25T07:34:41;19.35;;;4.22;;
79454;SDS011;68900;52.134;5.420;2024-01-25T07:37:08;18.15;;;3.22;;
79454;SDS011;68900;52.134;5.420;2024-01-25T07:39:37;15.68;;;3.55;;
79454;SDS011;68900;52.134;5.420;2024-01-25T07:42:04;18.67;;;3.40;;
79454;SDS011;68900;52.134;5.420;2024-01-25T07:44:34;13.45;;;3.42;;
79454;SDS011;68900;52.134;5.420;2024-01-25T07:47:01;17.17;;;3.28;;
79454;SDS011;68900;52.134;5.420;2024-01-25T07:49:28;19.17;;;3.72;;
79454;SDS011;68900;52.134;5.420;2024-01-25T07:51:56;20.48;;;3.85;;
79454;SDS011;68900;52.134;5.420;2024-01-25T07:54:24;16.08;;;3.15;;
79454;SDS011;68900;52.134;5.420;2024-01-25T07:56:50;16.90;;;3.58;;
79454;SDS011;68900;52.134;5.420;2024-01-25T07:59:17;22.25;;;4.53;;
79454;SDS011;68900;52.134;5.420;2024-01-25T08:01:43;25.50;;;4.38;;
79454;SDS011;68900;52.134;5.420;2024-01-25T08:04:10;16.60;;;3.47;;
79454;SDS011;68900;52.134;5.420;2024-01-25T08:06:36;13.35;;;3.25;;
79454;SDS011;68900;52.134;5.420;2024-01-25T08:09:03;17.85;;;4.43;;
79454;SDS011;68900;52.134;5.420;2024-01-25T08:11:30;12.65;;;3.70;;
79454;SDS011;68900;52.134;5.420;2024-01-25T08:13:56;20.13;;;4.70;;
79454;SDS011;68900;52.134;5.420;2024-01-25T08:16:23;15.02;;;4.05;;
79454;SDS011;68900;52.134;5.420;2024-01-25T08:18:53;16.42;;;4.47;;
79454;SDS011;68900;52.134;5.420;2024-01-25T08:21:20;13.88;;;4.60;;
79454;SDS011;68900;52.134;5.420;2024-01-25T08:23:47;23.73;;;5.28;;
79454;SDS011;68900;52.134;5.420;2024-01-25T08:26:13;20.80;;;5.15;;
79454;SDS011;68900;52.134;5.420;2024-01-25T08:28:41;21.42;;;5.05;;
79454;SDS011;68900;52.134;5.420;2024-01-25T08:31:11;17.88;;;5.32;;
79454;SDS011;68900;52.134;5.420;2024-01-25T08:33:38;18.05;;;4.60;;
79454;SDS011;68900;52.134;5.420;2024-01-25T08:36:16;18.38;;;4.82;;
79454;SDS011;68900;52.134;5.420;2024-01-25T08:38:43;23.92;;;5.55;;
79454;SDS011;68900;52.134;5.420;2024-01-25T08:41:10;19.40;;;5.38;;
79454;SDS011;68900;52.134;5.420;2024-01-25T08:43:40;17.05;;;5.07;;
79454;SDS011;68900;52.134;5.420;2024-01-25T08:46:07;22.73;;;5.43;;
79454;SDS011;68900;52.134;5.420;2024-01-25T08:48:35;17.98;;;4.95;;
79454;SDS011;68900;52.134;5.420;2024-01-25T08:51:02;15.80;;;4.35;;
79454;SDS011;68900;52.134;5.420;2024-01-25T08:53:28;19.17;;;3.95;;
79454;SDS011;68900;52.134;5.420;2024-01-25T08:55:55;17.60;;;4.38;;
79454;SDS011;68900;52.134;5.420;2024-01-25T08:58:22;16.67;;;4.18;;
79454;SDS011;68900;52.134;5.420;2024-01-25T09:00:49;13.80;;;4.45;;
79454;SDS011;68900;52.134;5.420;2024-01-25T09:03:16;16.58;;;3.72;;
79454;SDS011;68900;52.134;5.420;2024-01-25T09:05:45;13.60;;;3.97;;
79454;SDS011;68900;52.134;5.420;2024-01-25T09:08:12;20.85;;;3.78;;
79454;SDS011;68900;52.134;5.420;2024-01-25T09:10:40;17.85;;;3.35;;
79454;SDS011;68900;52.134;5.420;2024-01-25T09:13:07;18.40;;;3.58;;
79454;SDS011;68900;52.134;5.420;2024-01-25T09:15:35;16.35;;;3.30;;
79454;SDS011;68900;52.134;5.420;2024-01-25T09:20:31;17.25;;;3.00;;
79454;SDS011;68900;52.134;5.420;2024-01-25T09:22:58;15.00;;;3.25;;
79454;SDS011;68900;52.134;5.420;2024-01-25T09:25:25;17.80;;;3.40;;
79454;SDS011;68900;52.134;5.420;2024-01-25T09:27:51;17.48;;;2.67;;
79454;SDS011;68900;52.134;5.420;2024-01-25T09:30:20;18.20;;;2.80;;
79454;SDS011;68900;52.134;5.420;2024-01-25T09:32:47;15.90;;;3.03;;
79454;SDS011;68900;52.134;5.420;2024-01-25T09:35:15;18.92;;;2.97;;
79454;SDS011;68900;52.134;5.420;2024-01-25T09:37:42;15.10;;;2.85;;
79454;SDS011;68900;52.134;5.420;2024-01-25T09:40:09;15.30;;;4.07;;
79454;SDS011;68900;52.134;5.420;2024-01-25T09:42:37;15.63;;;3.20;;
79454;SDS011;68900;52.134;5.420;2024-01-25T09:45:05;21.10;;;2.83;;
79454;SDS011;68900;52.134;5.420;2024-01-25T09:47:34;14.48;;;3.28;;
79454;SDS011;68900;52.134;5.420;2024-01-25T09:50:01;27.80;;;3.47;;
79454;SDS011;68900;52.134;5.420;2024-01-25T09:52:28;22.70;;;3.85;;
79454;SDS011;68900;52.134;5.420;2024-01-25T09:54:57;17.08;;;3.60;;
79454;SDS011;68900;52.134;5.420;2024-01-25T09:57:24;19.92;;;3.72;;
79454;SDS011;68900;52.134;5.420;2024-01-25T09:59:54;20.35;;;3.58;;
79454;SDS011;68900;52.134;5.420;2024-01-25T10:02:24;19.85;;;3.53;;
79454;SDS011;68900;52.134;5.420;2024-01-25T10:04:51;22.35;;;3.42;;
79454;SDS011;68900;52.134;5.420;2024-01-25T10:07:39;16.63;;;3.45;;
79454;SDS011;68900;52.134;5.420;2024-01-25T10:10:08;23.20;;;3.88;;
79454;SDS011;68900;52.134;5.420;2024-01-25T10:12:42;21.13;;;3.90;;
79454;SDS011;68900;52.134;5.420;2024-01-25T10:15:10;21.30;;;3.63;;
79454;SDS011;68900;52.134;5.420;2024-01-25T10:17:37;18.38;;;3.03;;
79454;SDS011;68900;52.134;5.420;2024-01-25T10:20:24;19.08;;;3.45;;
79454;SDS011;68900;52.134;5.420;2024-01-25T10:22:58;17.60;;;2.90;;
79454;SDS011;68900;52.134;5.420;2024-01-25T10:25:26;17.90;;;2.97;;
79454;SDS011;68900;52.134;5.420;2024-01-25T10:27:53;19.92;;;3.33;;
79454;SDS011;68900;52.134;5.420;2024-01-25T10:30:20;23.83;;;3.90;;
79454;SDS011;68900;52.134;5.420;2024-01-25T10:32:48;20.98;;;3.40;;
79454;SDS011;68900;52.134;5.420;2024-01-25T10:35:17;23.85;;;4.30;;
79454;SDS011;68900;52.134;5.420;2024-01-25T10:37:49;24.48;;;3.45;;
79454;SDS011;68900;52.134;5.420;2024-01-25T10:40:18;16.58;;;3.28;;
79454;SDS011;68900;52.134;5.420;2024-01-25T10:42:46;20.23;;;3.53;;
79454;SDS011;68900;52.134;5.420;2024-01-25T10:45:13;18.60;;;3.67;;
79454;SDS011;68900;52.134;5.420;2024-01-25T10:47:39;20.15;;;4.22;;
79454;SDS011;68900;52.134;5.420;2024-01-25T10:50:11;21.95;;;3.45;;
79454;SDS011;68900;52.134;5.420;2024-01-25T10:52:40;22.77;;;4.05;;
79454;SDS011;68900;52.134;5.420;2024-01-25T10:55:08;18.95;;;3.78;;
79454;SDS011;68900;52.134;5.420;2024-01-25T10:57:39;18.88;;;3.72;;
79454;SDS011;68900;52.134;5.420;2024-01-25T11:00:10;17.85;;;3.08;;
79454;SDS011;68900;52.134;5.420;2024-01-25T11:02:46;27.55;;;3.40;;
79454;SDS011;68900;52.134;5.420;2024-01-25T11:05:14;17.35;;;3.30;;
79454;SDS011;68900;52.134;5.420;2024-01-25T11:07:50;19.60;;;3.47;;
79454;SDS011;68900;52.134;5.420;2024-01-25T11:10:19;21.35;;;3.75;;
79454;SDS011;68900;52.134;5.420;2024-01-25T11:12:50;15.23;;;3.65;;
79454;SDS011;68900;52.134;5.420;2024-01-25T11:15:29;21.60;;;3.80;;
79454;SDS011;68900;52.134;5.420;2024-01-25T11:17:56;21.75;;;4.20;;
79454;SDS011;68900;52.134;5.420;2024-01-25T11:20:24;13.95;;;3.28;;
79454;SDS011;68900;52.134;5.420;2024-01-25T11:23:02;18.10;;;3.60;;
79454;SDS011;68900;52.134;5.420;2024-01-25T11:25:31;18.95;;;3.83;;
79454;SDS011;68900;52.134;5.420;2024-01-25T11:28:00;22.35;;;3.85;;
79454;SDS011;68900;52.134;5.420;2024-01-25T11:30:31;20.38;;;4.03;;
79454;SDS011;68900;52.134;5.420;2024-01-25T11:33:00;21.42;;;3.97;;
79454;SDS011;68900;52.134;5.420;2024-01-25T11:35:30;25.65;;;3.58;;
79454;SDS011;68900;52.134;5.420;2024-01-25T11:37:58;16.75;;;2.97;;
79454;SDS011;68900;52.134;5.420;2024-01-25T11:40:24;18.40;;;4.00;;
79454;SDS011;68900;52.134;5.420;2024-01-25T11:42:51;19.38;;;2.97;;
79454;SDS011;68900;52.134;5.420;2024-01-25T11:45:18;24.20;;;3.63;;
79454;SDS011;68900;52.134;5.420;2024-01-25T11:47:45;21.50;;;3.58;;
79454;SDS011;68900;52.134;5.420;2024-01-25T11:50:12;21.42;;;3.50;;
79454;SDS011;68900;52.134;5.420;2024-01-25T11:52:40;18.85;;;3.95;;
79454;SDS011;68900;52.134;5.420;2024-01-25T11:55:07;17.48;;;3.42;;
79454;SDS011;68900;52.134;5.420;2024-01-25T11:57:40;18.98;;;3.55;;
79454;SDS011;68900;52.134;5.420;2024-01-25T12:00:08;23.63;;;4.38;;
79454;SDS011;68900;52.134;5.420;2024-01-25T12:02:36;23.10;;;3.72;;
79454;SDS011;68900;52.134;5.420;2024-01-25T12:05:04;20.63;;;3.90;;
79454;SDS011;68900;52.134;5.420;2024-01-25T12:07:32;23.00;;;4.30;;
79454;SDS011;68900;52.134;5.420;2024-01-25T12:10:01;25.08;;;4.05;;
79454;SDS011;68900;52.134;5.420;2024-01-25T12:12:28;20.83;;;4.55;;
79454;SDS011;68900;52.134;5.420;2024-01-25T12:14:58;25.70;;;4.10;;
79454;SDS011;68900;52.134;5.420;2024-01-25T12:17:26;22.65;;;4.35;;
79454;SDS011;68900;52.134;5.420;2024-01-25T12:19:57;23.17;;;4.32;;
79454;SDS011;68900;52.134;5.420;2024-01-25T12:22:28;19.27;;;4.65;;
79454;SDS011;68900;52.134;5.420;2024-01-25T12:24:58;24.77;;;4.45;;
79454;SDS011;68900;52.134;5.420;2024-01-25T12:27:27;21.48;;;3.72;;
79454;SDS011;68900;52.134;5.420;2024-01-25T12:30:02;25.65;;;4.47;;
79454;SDS011;68900;52.134;5.420;2024-01-25T12:32:30;23.25;;;4.07;;
79454;SDS011;68900;52.134;5.420;2024-01-25T12:34:57;17.33;;;4.00;;
79454;SDS011;68900;52.134;5.420;2024-01-25T12:37:27;22.38;;;4.50;;
79454;SDS011;68900;52.134;5.420;2024-01-25T12:39:54;19.05;;;5.18;;
79454;SDS011;68900;52.134;5.420;2024-01-25T12:42:21;17.48;;;4.10;;
79454;SDS011;68900;52.134;5.420;2024-01-25T12:44:58;22.25;;;4.07;;
79454;SDS011;68900;52.134;5.420;2024-01-25T12:47:24;14.50;;;3.67;;
79454;SDS011;68900;52.134;5.420;2024-01-25T12:49:52;20.30;;;3.63;;
79454;SDS011;68900;52.134;5.420;2024-01-25T12:52:23;22.92;;;4.63;;
79454;SDS011;68900;52.134;5.420;2024-01-25T12:55:58;20.00;;;3.63;;
79454;SDS011;68900;52.134;5.420;2024-01-25T12:58:27;14.65;;;3.75;;
79454;SDS011;68900;52.134;5.420;2024-01-25T13:01:04;17.65;;;4.20;;
79454;SDS011;68900;52.134;5.420;2024-01-25T13:03:43;25.73;;;4.68;;
79454;SDS011;68900;52.134;5.420;2024-01-25T13:06:13;21.90;;;4.70;;
79454;SDS011;68900;52.134;5.420;2024-01-25T13:08:40;27.77;;;5.03;;
79454;SDS011;68900;52.134;5.420;2024-01-25T13:11:06;25.58;;;4.53;;
79454;SDS011;68900;52.134;5.420;2024-01-25T13:13:33;21.83;;;4.55;;
79454;SDS011;68900;52.134;5.420;2024-01-25T13:16:05;24.15;;;4.53;;
79454;SDS011;68900;52.134;5.420;2024-01-25T13:18:41;17.55;;;4.57;;
79454;SDS011;68900;52.134;5.420;2024-01-25T13:21:08;19.73;;;4.57;;
79454;SDS011;68900;52.134;5.420;2024-01-25T13:23:41;25.30;;;4.90;;
79454;SDS011;68900;52.134;5.420;2024-01-25T13:26:07;22.80;;;4.70;;
79454;SDS011;68900;52.134;5.420;2024-01-25T13:28:34;23.73;;;5.22;;
79454;SDS011;68900;52.134;5.420;2024-01-25T13:31:00;24.15;;;4.93;;
79454;SDS011;68900;52.134;5.420;2024-01-25T13:33:28;23.38;;;4.55;;
79454;SDS011;68900;52.134;5.420;2024-01-25T13:35:55;26.80;;;5.28;;
79454;SDS011;68900;52.134;5.420;2024-01-25T13:38:22;24.98;;;5.35;;
79454;SDS011;68900;52.134;5.420;2024-01-25T13:40:55;28.65;;;5.18;;
79454;SDS011;68900;52.134;5.420;2024-01-25T13:43:22;20.23;;;5.50;;
79454;SDS011;68900;52.134;5.420;2024-01-25T13:45:51;16.50;;;4.72;;
79454;SDS011;68900;52.134;5.420;2024-01-25T13:48:23;17.40;;;4.32;;
79454;SDS011;68900;52.134;5.420;2024-01-25T13:50:50;22.33;;;5.15;;
79454;SDS011;68900;52.134;5.420;2024-01-25T13:53:16;23.65;;;5.40;;
79454;SDS011;68900;52.134;5.420;2024-01-25T13:55:44;26.10;;;5.57;;
79454;SDS011;68900;52.134;5.420;2024-01-25T13:58:11;21.73;;;5.35;;
79454;SDS011;68900;52.134;5.420;2024-01-25T14:00:37;21.88;;;5.30;;
79454;SDS011;68900;52.134;5.420;2024-01-25T14:03:04;23.55;;;5.03;;
79454;SDS011;68900;52.134;5.420;2024-01-25T14:05:31;21.23;;;5.57;;
79454;SDS011;68900;52.134;5.420;2024-01-25T14:07:58;22.90;;;5.35;;
79454;SDS011;68900;52.134;5.420;2024-01-25T14:10:26;23.52;;;4.68;;
79454;SDS011;68900;52.134;5.420;2024-01-25T14:12:54;26.65;;;5.35;;
79454;SDS011;68900;52.134;5.420;2024-01-25T14:18:14;18.05;;;4.88;;
79454;SDS011;68900;52.134;5.420;2024-01-25T14:20:41;31.52;;;6.13;;
79454;SDS011;68900;52.134;5.420;2024-01-25T14:23:08;26.45;;;5.47;;
79454;SDS011;68900;52.134;5.420;2024-01-25T14:25:56;21.58;;;5.82;;
79454;SDS011;68900;52.134;5.420;2024-01-25T14:28:48;28.95;;;5.88;;
79454;SDS011;68900;52.134;5.420;2024-01-25T14:31:15;25.73;;;6.32;;
79454;SDS011;68900;52.134;5.420;2024-01-25T14:33:42;23.98;;;5.63;;
79454;SDS011;68900;52.134;5.420;2024-01-25T14:36:12;23.25;;;5.43;;
79454;SDS011;68900;52.134;5.420;2024-01-25T14:38:40;24.35;;;6.78;;
79454;SDS011;68900;52.134;5.420;2024-01-25T14:41:11;27.95;;;6.00;;
79454;SDS011;68900;52.134;5.420;2024-01-25T14:43:38;24.10;;;6.35;;
79454;SDS011;68900;52.134;5.420;2024-01-25T14:46:07;27.30;;;7.00;;
79454;SDS011;68900;52.134;5.420;2024-01-25T14:48:34;24.02;;;6.57;;
79454;SDS011;68900;52.134;5.420;2024-01-25T14:51:01;29.95;;;6.75;;
79454;SDS011;68900;52.134;5.420;2024-01-25T14:53:30;27.23;;;7.07;;